sensor_id;sensor_type;location;lat;lon;timestamp;P1;durP1;ratioP1;P2;durP2;ratioP2
22894;SDS011;11614;52.494;6.976;2023-08-06T00:02:23;12.93;;;9.47;;
22894;SDS011;11614;52.494;6.976;2023-08-06T00:04:49;16.43;;;10.37;;
22894;SDS011;11614;52.494;6.976;2023-08-06T00:07:15;15.10;;;9.23;;
22894;SDS011;11614;52.494;6.976;2023-08-06T00:09:41;16.43;;;10.70;;
22894;SDS011;11614;52.494;6.976;2023-08-06T00:12:07;13.27;;;10.37;;
22894;SDS011;11614;52.494;6.976;2023-08-06T00:14:33;17.90;;;11.47;;
22894;SDS011;11614;52.494;6.976;2023-08-06T00:16:59;12.13;;;8.00;;
22894;SDS011;11614;52.494;6.976;2023-08-06T00:19:25;16.00;;;10.13;;
22894;SDS011;11614;52.494;6.976;2023-08-06T00:21:51;14.67;;;10.07;;
22894;SDS011;11614;52.494;6.976;2023-08-06T00:24:17;13.20;;;8.93;;
22894;SDS011;11614;52.494;6.976;2023-08-06T00:26:43;12.77;;;8.93;;
22894;SDS011;11614;52.494;6.976;2023-08-06T00:29:09;12.30;;;7.97;;
22894;SDS011;11614;52.494;6.976;2023-08-06T00:31:35;11.57;;;8.13;;
22894;SDS011;11614;52.494;6.976;2023-08-06T00:34:01;13.17;;;7.93;;
22894;SDS011;11614;52.494;6.976;2023-08-06T00:36:27;11.67;;;8.70;;
22894;SDS011;11614;52.494;6.976;2023-08-06T00:38:53;12.73;;;8.03;;
22894;SDS011;11614;52.494;6.976;2023-08-06T00:41:20;13.03;;;9.50;;
22894;SDS011;11614;52.494;6.976;2023-08-06T00:43:46;12.53;;;8.50;;
22894;SDS011;11614;52.494;6.976;2023-08-06T00:46:12;14.03;;;7.90;;
22894;SDS011;11614;52.494;6.976;2023-08-06T00:48:39;15.43;;;9.40;;
22894;SDS011;11614;52.494;6.976;2023-08-06T00:51:05;14.93;;;8.47;;
22894;SDS011;11614;52.494;6.976;2023-08-06T00:53:31;14.57;;;9.40;;
22894;SDS011;11614;52.494;6.976;2023-08-06T00:55:57;10.93;;;8.27;;
22894;SDS011;11614;52.494;6.976;2023-08-06T00:58:24;12.93;;;7.97;;
22894;SDS011;11614;52.494;6.976;2023-08-06T01:00:50;11.30;;;7.87;;
22894;SDS011;11614;52.494;6.976;2023-08-06T01:03:16;13.23;;;8.83;;
22894;SDS011;11614;52.494;6.976;2023-08-06T01:05:42;12.53;;;8.00;;
22894;SDS011;11614;52.494;6.976;2023-08-06T01:08:14;14.60;;;9.80;;
22894;SDS011;11614;52.494;6.976;2023-08-06T01:10:52;14.67;;;9.47;;
22894;SDS011;11614;52.494;6.976;2023-08-06T01:16:06;16.50;;;11.90;;
22894;SDS011;11614;52.494;6.976;2023-08-06T01:18:33;14.73;;;10.60;;
22894;SDS011;11614;52.494;6.976;2023-08-06T01:20:59;15.00;;;10.50;;
22894;SDS011;11614;52.494;6.976;2023-08-06T01:23:24;18.47;;;10.83;;
22894;SDS011;11614;52.494;6.976;2023-08-06T01:31:15;15.93;;;11.30;;
22894;SDS011;11614;52.494;6.976;2023-08-06T01:33:45;18.67;;;11.67;;
22894;SDS011;11614;52.494;6.976;2023-08-06T01:36:13;17.70;;;11.57;;
22894;SDS011;11614;52.494;6.976;2023-08-06T01:38:41;18.57;;;11.27;;
22894;SDS011;11614;52.494;6.976;2023-08-06T01:41:07;18.10;;;13.03;;
22894;SDS011;11614;52.494;6.976;2023-08-06T01:43:33;17.47;;;12.80;;
22894;SDS011;11614;52.494;6.976;2023-08-06T01:45:59;18.00;;;12.13;;
22894;SDS011;11614;52.494;6.976;2023-08-06T01:48:25;17.70;;;11.10;;
22894;SDS011;11614;52.494;6.976;2023-08-06T01:50:51;16.67;;;11.77;;
22894;SDS011;11614;52.494;6.976;2023-08-06T01:53:17;15.93;;;11.00;;
22894;SDS011;11614;52.494;6.976;2023-08-06T01:55:47;19.77;;;10.93;;
22894;SDS011;11614;52.494;6.976;2023-08-06T01:58:13;17.00;;;11.20;;
22894;SDS011;11614;52.494;6.976;2023-08-06T02:00:40;17.93;;;11.10;;
22894;SDS011;11614;52.494;6.976;2023-08-06T02:03:06;16.97;;;11.17;;
22894;SDS011;11614;52.494;6.976;2023-08-06T02:05:32;18.00;;;11.97;;
22894;SDS011;11614;52.494;6.976;2023-08-06T02:07:58;17.63;;;11.33;;
22894;SDS011;11614;52.494;6.976;2023-08-06T02:10:24;14.50;;;9.03;;
22894;SDS011;11614;52.494;6.976;2023-08-06T02:12:50;20.23;;;10.40;;
22894;SDS011;11614;52.494;6.976;2023-08-06T02:15:16;16.17;;;10.70;;
22894;SDS011;11614;52.494;6.976;2023-08-06T02:17:42;17.67;;;9.33;;
22894;SDS011;11614;52.494;6.976;2023-08-06T02:20:08;16.90;;;9.80;;
22894;SDS011;11614;52.494;6.976;2023-08-06T02:22:34;15.63;;;10.43;;
22894;SDS011;11614;52.494;6.976;2023-08-06T02:25:00;14.83;;;9.40;;
22894;SDS011;11614;52.494;6.976;2023-08-06T02:27:26;13.60;;;8.97;;
22894;SDS011;11614;52.494;6.976;2023-08-06T02:29:52;17.93;;;11.50;;
22894;SDS011;11614;52.494;6.976;2023-08-06T02:32:18;11.97;;;9.30;;
22894;SDS011;11614;52.494;6.976;2023-08-06T02:34:44;16.97;;;10.53;;
22894;SDS011;11614;52.494;6.976;2023-08-06T02:37:10;13.43;;;9.13;;
22894;SDS011;11614;52.494;6.976;2023-08-06T02:39:36;13.97;;;9.50;;
22894;SDS011;11614;52.494;6.976;2023-08-06T02:42:04;13.53;;;9.30;;
22894;SDS011;11614;52.494;6.976;2023-08-06T02:44:30;15.20;;;9.60;;
22894;SDS011;11614;52.494;6.976;2023-08-06T02:46:57;13.50;;;9.60;;
22894;SDS011;11614;52.494;6.976;2023-08-06T02:49:23;16.97;;;11.00;;
22894;SDS011;11614;52.494;6.976;2023-08-06T02:51:48;12.97;;;9.13;;
22894;SDS011;11614;52.494;6.976;2023-08-06T02:54:14;12.47;;;8.50;;
22894;SDS011;11614;52.494;6.976;2023-08-06T02:56:42;14.37;;;8.87;;
22894;SDS011;11614;52.494;6.976;2023-08-06T02:59:09;14.03;;;10.20;;
22894;SDS011;11614;52.494;6.976;2023-08-06T03:01:35;14.27;;;9.37;;
22894;SDS011;11614;52.494;6.976;2023-08-06T03:04:01;13.67;;;9.33;;
22894;SDS011;11614;52.494;6.976;2023-08-06T03:06:27;11.77;;;9.27;;
22894;SDS011;11614;52.494;6.976;2023-08-06T03:08:54;14.40;;;8.83;;
22894;SDS011;11614;52.494;6.976;2023-08-06T03:11:20;12.83;;;9.30;;
22894;SDS011;11614;52.494;6.976;2023-08-06T03:13:46;12.30;;;8.40;;
22894;SDS011;11614;52.494;6.976;2023-08-06T03:16:12;15.23;;;9.53;;
22894;SDS011;11614;52.494;6.976;2023-08-06T03:18:38;13.40;;;9.40;;
22894;SDS011;11614;52.494;6.976;2023-08-06T03:21:04;12.67;;;8.97;;
22894;SDS011;11614;52.494;6.976;2023-08-06T03:23:30;14.37;;;9.17;;
22894;SDS011;11614;52.494;6.976;2023-08-06T03:26:00;13.90;;;9.53;;
22894;SDS011;11614;52.494;6.976;2023-08-06T03:28:26;14.90;;;10.13;;
22894;SDS011;11614;52.494;6.976;2023-08-06T03:31:02;14.73;;;9.07;;
22894;SDS011;11614;52.494;6.976;2023-08-06T03:33:28;14.30;;;9.40;;
22894;SDS011;11614;52.494;6.976;2023-08-06T03:35:54;15.27;;;9.67;;
22894;SDS011;11614;52.494;6.976;2023-08-06T03:38:21;13.17;;;9.43;;
22894;SDS011;11614;52.494;6.976;2023-08-06T03:40:47;13.80;;;8.97;;
22894;SDS011;11614;52.494;6.976;2023-08-06T03:43:13;13.43;;;9.20;;
22894;SDS011;11614;52.494;6.976;2023-08-06T03:45:40;13.43;;;9.23;;
22894;SDS011;11614;52.494;6.976;2023-08-06T03:48:06;13.40;;;9.23;;
22894;SDS011;11614;52.494;6.976;2023-08-06T03:50:32;13.30;;;9.00;;
22894;SDS011;11614;52.494;6.976;2023-08-06T03:52:58;14.67;;;9.67;;
22894;SDS011;11614;52.494;6.976;2023-08-06T03:55:24;15.30;;;9.50;;
22894;SDS011;11614;52.494;6.976;2023-08-06T03:57:50;16.23;;;9.77;;
22894;SDS011;11614;52.494;6.976;2023-08-06T04:00:16;15.20;;;8.93;;
22894;SDS011;11614;52.494;6.976;2023-08-06T04:02:42;12.37;;;8.57;;
22894;SDS011;11614;52.494;6.976;2023-08-06T04:05:08;15.00;;;9.37;;
22894;SDS011;11614;52.494;6.976;2023-08-06T04:07:34;12.73;;;8.30;;
22894;SDS011;11614;52.494;6.976;2023-08-06T04:10:01;14.07;;;9.27;;
22894;SDS011;11614;52.494;6.976;2023-08-06T04:12:28;15.73;;;9.30;;
22894;SDS011;11614;52.494;6.976;2023-08-06T04:14:54;13.80;;;9.67;;
22894;SDS011;11614;52.494;6.976;2023-08-06T04:17:20;14.47;;;9.67;;
22894;SDS011;11614;52.494;6.976;2023-08-06T04:19:50;16.20;;;9.90;;
22894;SDS011;11614;52.494;6.976;2023-08-06T04:22:16;15.70;;;10.93;;
22894;SDS011;11614;52.494;6.976;2023-08-06T04:24:43;16.03;;;10.07;;
22894;SDS011;11614;52.494;6.976;2023-08-06T04:27:09;13.07;;;9.37;;
22894;SDS011;11614;52.494;6.976;2023-08-06T04:29:35;13.50;;;9.03;;
22894;SDS011;11614;52.494;6.976;2023-08-06T04:32:02;14.03;;;8.87;;
22894;SDS011;11614;52.494;6.976;2023-08-06T04:34:28;15.07;;;9.40;;
22894;SDS011;11614;52.494;6.976;2023-08-06T04:36:53;16.70;;;9.67;;
22894;SDS011;11614;52.494;6.976;2023-08-06T04:39:19;16.53;;;9.70;;
22894;SDS011;11614;52.494;6.976;2023-08-06T04:41:45;14.70;;;8.83;;
22894;SDS011;11614;52.494;6.976;2023-08-06T04:44:11;15.80;;;9.20;;
22894;SDS011;11614;52.494;6.976;2023-08-06T04:46:37;13.00;;;8.97;;
22894;SDS011;11614;52.494;6.976;2023-08-06T04:49:03;11.33;;;8.63;;
22894;SDS011;11614;52.494;6.976;2023-08-06T04:51:29;12.47;;;8.67;;
22894;SDS011;11614;52.494;6.976;2023-08-06T04:53:56;14.73;;;8.93;;
22894;SDS011;11614;52.494;6.976;2023-08-06T04:56:22;11.67;;;8.60;;
22894;SDS011;11614;52.494;6.976;2023-08-06T04:58:50;13.63;;;8.47;;
22894;SDS011;11614;52.494;6.976;2023-08-06T05:01:16;15.13;;;10.33;;
22894;SDS011;11614;52.494;6.976;2023-08-06T05:03:42;19.60;;;9.33;;
22894;SDS011;11614;52.494;6.976;2023-08-06T05:06:08;13.57;;;8.53;;
22894;SDS011;11614;52.494;6.976;2023-08-06T05:08:34;11.57;;;8.77;;
22894;SDS011;11614;52.494;6.976;2023-08-06T05:11:00;11.53;;;7.90;;
22894;SDS011;11614;52.494;6.976;2023-08-06T05:13:26;11.43;;;8.27;;
22894;SDS011;11614;52.494;6.976;2023-08-06T05:15:55;10.40;;;8.50;;
22894;SDS011;11614;52.494;6.976;2023-08-06T05:18:21;12.03;;;7.87;;
22894;SDS011;11614;52.494;6.976;2023-08-06T05:20:47;11.37;;;8.60;;
22894;SDS011;11614;52.494;6.976;2023-08-06T05:23:13;10.10;;;7.70;;
22894;SDS011;11614;52.494;6.976;2023-08-06T05:25:39;11.40;;;7.90;;
22894;SDS011;11614;52.494;6.976;2023-08-06T05:28:05;10.17;;;6.97;;
22894;SDS011;11614;52.494;6.976;2023-08-06T05:30:31;12.63;;;8.43;;
22894;SDS011;11614;52.494;6.976;2023-08-06T05:32:57;11.53;;;8.37;;
22894;SDS011;11614;52.494;6.976;2023-08-06T05:35:23;12.40;;;9.40;;
22894;SDS011;11614;52.494;6.976;2023-08-06T05:37:49;10.53;;;7.63;;
22894;SDS011;11614;52.494;6.976;2023-08-06T05:40:15;12.03;;;8.13;;
22894;SDS011;11614;52.494;6.976;2023-08-06T05:42:41;10.93;;;8.13;;
22894;SDS011;11614;52.494;6.976;2023-08-06T05:45:08;11.17;;;8.17;;
22894;SDS011;11614;52.494;6.976;2023-08-06T05:47:34;11.27;;;8.20;;
22894;SDS011;11614;52.494;6.976;2023-08-06T05:50:00;11.90;;;7.87;;
22894;SDS011;11614;52.494;6.976;2023-08-06T05:52:26;9.63;;;7.10;;
22894;SDS011;11614;52.494;6.976;2023-08-06T05:54:52;10.20;;;6.67;;
22894;SDS011;11614;52.494;6.976;2023-08-06T05:57:20;14.80;;;8.17;;
22894;SDS011;11614;52.494;6.976;2023-08-06T05:59:46;11.83;;;8.17;;
22894;SDS011;11614;52.494;6.976;2023-08-06T06:02:12;10.70;;;7.97;;
22894;SDS011;11614;52.494;6.976;2023-08-06T06:04:38;11.80;;;7.33;;
22894;SDS011;11614;52.494;6.976;2023-08-06T06:07:04;10.20;;;6.93;;
22894;SDS011;11614;52.494;6.976;2023-08-06T06:09:30;9.60;;;7.70;;
22894;SDS011;11614;52.494;6.976;2023-08-06T06:11:56;12.23;;;7.53;;
22894;SDS011;11614;52.494;6.976;2023-08-06T06:14:22;9.80;;;7.60;;
22894;SDS011;11614;52.494;6.976;2023-08-06T06:16:47;10.67;;;7.97;;
22894;SDS011;11614;52.494;6.976;2023-08-06T06:19:13;11.50;;;7.93;;
22894;SDS011;11614;52.494;6.976;2023-08-06T06:21:39;10.73;;;7.33;;
22894;SDS011;11614;52.494;6.976;2023-08-06T06:24:05;10.23;;;8.00;;
22894;SDS011;11614;52.494;6.976;2023-08-06T06:26:33;12.37;;;8.90;;
22894;SDS011;11614;52.494;6.976;2023-08-06T06:28:59;12.27;;;8.03;;
22894;SDS011;11614;52.494;6.976;2023-08-06T06:31:24;9.67;;;7.67;;
22894;SDS011;11614;52.494;6.976;2023-08-06T06:33:50;10.23;;;7.70;;
22894;SDS011;11614;52.494;6.976;2023-08-06T06:36:19;10.23;;;7.30;;
22894;SDS011;11614;52.494;6.976;2023-08-06T06:38:45;10.27;;;7.67;;
22894;SDS011;11614;52.494;6.976;2023-08-06T06:41:11;11.43;;;7.72;;
22894;SDS011;11614;52.494;6.976;2023-08-06T06:43:37;10.05;;;8.10;;
22894;SDS011;11614;52.494;6.976;2023-08-06T06:46:04;8.50;;;6.10;;
22894;SDS011;11614;52.494;6.976;2023-08-06T06:48:31;8.95;;;6.68;;
22894;SDS011;11614;52.494;6.976;2023-08-06T06:50:57;9.15;;;7.15;;
22894;SDS011;11614;52.494;6.976;2023-08-06T06:53:23;9.68;;;6.55;;
22894;SDS011;11614;52.494;6.976;2023-08-06T06:55:55;9.57;;;6.60;;
22894;SDS011;11614;52.494;6.976;2023-08-06T06:58:21;9.45;;;6.90;;
22894;SDS011;11614;52.494;6.976;2023-08-06T07:00:47;13.05;;;7.03;;
22894;SDS011;11614;52.494;6.976;2023-08-06T07:03:14;10.00;;;6.32;;
22894;SDS011;11614;52.494;6.976;2023-08-06T07:05:40;8.63;;;6.87;;
22894;SDS011;11614;52.494;6.976;2023-08-06T07:08:06;8.48;;;6.75;;
22894;SDS011;11614;52.494;6.976;2023-08-06T07:10:32;10.77;;;7.70;;
22894;SDS011;11614;52.494;6.976;2023-08-06T07:12:58;9.23;;;7.18;;
22894;SDS011;11614;52.494;6.976;2023-08-06T07:15:24;10.73;;;7.30;;
22894;SDS011;11614;52.494;6.976;2023-08-06T07:17:50;10.15;;;6.80;;
22894;SDS011;11614;52.494;6.976;2023-08-06T07:20:16;9.35;;;7.03;;
22894;SDS011;11614;52.494;6.976;2023-08-06T07:22:42;9.52;;;7.13;;
22894;SDS011;11614;52.494;6.976;2023-08-06T07:25:08;13.07;;;8.23;;
22894;SDS011;11614;52.494;6.976;2023-08-06T07:27:34;10.07;;;7.72;;
22894;SDS011;11614;52.494;6.976;2023-08-06T07:30:00;13.07;;;8.20;;
22894;SDS011;11614;52.494;6.976;2023-08-06T07:32:26;11.50;;;7.45;;
22894;SDS011;11614;52.494;6.976;2023-08-06T07:34:55;9.15;;;7.03;;
22894;SDS011;11614;52.494;6.976;2023-08-06T07:37:24;9.30;;;7.30;;
22894;SDS011;11614;52.494;6.976;2023-08-06T07:39:50;7.50;;;6.15;;
22894;SDS011;11614;52.494;6.976;2023-08-06T07:42:16;8.50;;;6.68;;
22894;SDS011;11614;52.494;6.976;2023-08-06T07:44:48;8.27;;;6.50;;
22894;SDS011;11614;52.494;6.976;2023-08-06T07:47:15;9.70;;;6.28;;
22894;SDS011;11614;52.494;6.976;2023-08-06T07:49:41;8.07;;;6.38;;
22894;SDS011;11614;52.494;6.976;2023-08-06T07:52:07;10.02;;;7.05;;
22894;SDS011;11614;52.494;6.976;2023-08-06T07:54:33;7.35;;;6.38;;
22894;SDS011;11614;52.494;6.976;2023-08-06T07:56:59;9.35;;;7.28;;
22894;SDS011;11614;52.494;6.976;2023-08-06T07:59:25;9.77;;;6.75;;
22894;SDS011;11614;52.494;6.976;2023-08-06T08:01:51;10.40;;;6.65;;
22894;SDS011;11614;52.494;6.976;2023-08-06T08:04:17;7.95;;;6.38;;
22894;SDS011;11614;52.494;6.976;2023-08-06T08:06:43;8.45;;;6.93;;
22894;SDS011;11614;52.494;6.976;2023-08-06T08:09:09;8.75;;;6.50;;
22894;SDS011;11614;52.494;6.976;2023-08-06T08:11:35;8.25;;;6.40;;
22894;SDS011;11614;52.494;6.976;2023-08-06T08:14:01;7.65;;;5.93;;
22894;SDS011;11614;52.494;6.976;2023-08-06T08:16:27;9.40;;;6.63;;
22894;SDS011;11614;52.494;6.976;2023-08-06T08:18:53;7.57;;;6.18;;
22894;SDS011;11614;52.494;6.976;2023-08-06T08:21:19;10.27;;;7.15;;
22894;SDS011;11614;52.494;6.976;2023-08-06T08:23:45;10.95;;;7.43;;
22894;SDS011;11614;52.494;6.976;2023-08-06T08:26:11;9.80;;;6.75;;
22894;SDS011;11614;52.494;6.976;2023-08-06T08:28:37;9.05;;;7.53;;
22894;SDS011;11614;52.494;6.976;2023-08-06T08:31:03;8.15;;;6.88;;
22894;SDS011;11614;52.494;6.976;2023-08-06T08:33:29;8.68;;;7.32;;
22894;SDS011;11614;52.494;6.976;2023-08-06T08:35:55;8.10;;;6.53;;
22894;SDS011;11614;52.494;6.976;2023-08-06T08:38:21;10.50;;;7.65;;
22894;SDS011;11614;52.494;6.976;2023-08-06T08:40:47;9.13;;;7.97;;
22894;SDS011;11614;52.494;6.976;2023-08-06T08:43:16;9.10;;;7.18;;
22894;SDS011;11614;52.494;6.976;2023-08-06T08:45:43;8.95;;;8.05;;
22894;SDS011;11614;52.494;6.976;2023-08-06T08:48:14;8.43;;;7.60;;
22894;SDS011;11614;52.494;6.976;2023-08-06T08:50:41;9.60;;;8.60;;
22894;SDS011;11614;52.494;6.976;2023-08-06T08:53:08;10.18;;;8.95;;
22894;SDS011;11614;52.494;6.976;2023-08-06T08:55:34;12.05;;;10.05;;
22894;SDS011;11614;52.494;6.976;2023-08-06T08:58:00;11.70;;;10.48;;
22894;SDS011;11614;52.494;6.976;2023-08-06T09:00:26;10.02;;;9.07;;
22894;SDS011;11614;52.494;6.976;2023-08-06T09:02:53;9.35;;;8.45;;
22894;SDS011;11614;52.494;6.976;2023-08-06T09:05:20;12.57;;;9.82;;
22894;SDS011;11614;52.494;6.976;2023-08-06T09:07:47;9.38;;;8.38;;
22894;SDS011;11614;52.494;6.976;2023-08-06T09:10:14;9.98;;;8.98;;
22894;SDS011;11614;52.494;6.976;2023-08-06T09:12:42;9.52;;;8.63;;
22894;SDS011;11614;52.494;6.976;2023-08-06T09:15:09;9.35;;;8.38;;
22894;SDS011;11614;52.494;6.976;2023-08-06T09:17:36;12.65;;;9.90;;
22894;SDS011;11614;52.494;6.976;2023-08-06T09:20:11;11.75;;;9.05;;
22894;SDS011;11614;52.494;6.976;2023-08-06T09:22:37;11.00;;;9.90;;
22894;SDS011;11614;52.494;6.976;2023-08-06T09:25:04;10.68;;;9.55;;
22894;SDS011;11614;52.494;6.976;2023-08-06T09:27:34;10.52;;;9.45;;
22894;SDS011;11614;52.494;6.976;2023-08-06T09:30:00;9.25;;;8.35;;
22894;SDS011;11614;52.494;6.976;2023-08-06T09:32:26;8.60;;;7.80;;
22894;SDS011;11614;52.494;6.976;2023-08-06T09:34:55;9.60;;;8.60;;
22894;SDS011;11614;52.494;6.976;2023-08-06T09:37:22;9.38;;;7.60;;
22894;SDS011;11614;52.494;6.976;2023-08-06T09:39:48;9.07;;;7.78;;
22894;SDS011;11614;52.494;6.976;2023-08-06T09:42:14;8.85;;;8.00;;
22894;SDS011;11614;52.494;6.976;2023-08-06T09:44:41;9.60;;;8.68;;
22894;SDS011;11614;52.494;6.976;2023-08-06T09:47:07;9.13;;;8.20;;
22894;SDS011;11614;52.494;6.976;2023-08-06T09:51:59;9.95;;;9.05;;
22894;SDS011;11614;52.494;6.976;2023-08-06T09:54:25;8.80;;;7.93;;
22894;SDS011;11614;52.494;6.976;2023-08-06T09:56:52;9.00;;;7.25;;
22894;SDS011;11614;52.494;6.976;2023-08-06T09:59:19;9.10;;;8.20;;
22894;SDS011;11614;52.494;6.976;2023-08-06T10:01:45;8.23;;;7.38;;
22894;SDS011;11614;52.494;6.976;2023-08-06T10:04:12;9.90;;;8.40;;
22894;SDS011;11614;52.494;6.976;2023-08-06T10:06:41;10.18;;;6.90;;
22894;SDS011;11614;52.494;6.976;2023-08-06T10:09:07;9.05;;;7.60;;
22894;SDS011;11614;52.494;6.976;2023-08-06T10:11:34;8.38;;;7.57;;
22894;SDS011;11614;52.494;6.976;2023-08-06T10:14:10;7.22;;;6.50;;
22894;SDS011;11614;52.494;6.976;2023-08-06T10:16:37;7.68;;;6.78;;
22894;SDS011;11614;52.494;6.976;2023-08-06T10:19:04;7.18;;;6.47;;
22894;SDS011;11614;52.494;6.976;2023-08-06T10:21:31;7.82;;;5.50;;
22894;SDS011;11614;52.494;6.976;2023-08-06T10:23:57;6.97;;;6.38;;
22894;SDS011;11614;52.494;6.976;2023-08-06T10:26:29;6.35;;;5.75;;
22894;SDS011;11614;52.494;6.976;2023-08-06T10:28:55;8.48;;;6.85;;
22894;SDS011;11614;52.494;6.976;2023-08-06T10:34:06;7.28;;;6.05;;
22894;SDS011;11614;52.494;6.976;2023-08-06T10:36:34;6.40;;;5.85;;
22894;SDS011;11614;52.494;6.976;2023-08-06T10:39:00;5.70;;;5.10;;
22894;SDS011;11614;52.494;6.976;2023-08-06T10:41:28;5.35;;;4.88;;
22894;SDS011;11614;52.494;6.976;2023-08-06T10:44:07;6.40;;;5.82;;
22894;SDS011;11614;52.494;6.976;2023-08-06T10:46:33;5.32;;;4.82;;
22894;SDS011;11614;52.494;6.976;2023-08-06T10:48:59;5.15;;;4.65;;
22894;SDS011;11614;52.494;6.976;2023-08-06T10:51:25;6.35;;;5.20;;
22894;SDS011;11614;52.494;6.976;2023-08-06T10:53:52;5.28;;;4.03;;
22894;SDS011;11614;52.494;6.976;2023-08-06T10:56:24;5.45;;;5.00;;
22894;SDS011;11614;52.494;6.976;2023-08-06T10:58:54;4.65;;;4.13;;
22894;SDS011;11614;52.494;6.976;2023-08-06T11:01:23;5.13;;;4.53;;
22894;SDS011;11614;52.494;6.976;2023-08-06T11:03:50;4.72;;;4.28;;
22894;SDS011;11614;52.494;6.976;2023-08-06T11:06:18;5.85;;;5.18;;
22894;SDS011;11614;52.494;6.976;2023-08-06T11:08:48;4.60;;;4.20;;
22894;SDS011;11614;52.494;6.976;2023-08-06T11:11:15;4.47;;;4.10;;
22894;SDS011;11614;52.494;6.976;2023-08-06T11:13:47;4.38;;;3.75;;
22894;SDS011;11614;52.494;6.976;2023-08-06T11:16:14;6.57;;;4.50;;
22894;SDS011;11614;52.494;6.976;2023-08-06T11:18:40;4.05;;;3.72;;
22894;SDS011;11614;52.494;6.976;2023-08-06T11:21:09;6.38;;;4.75;;
22894;SDS011;11614;52.494;6.976;2023-08-06T11:23:37;3.40;;;3.13;;
22894;SDS011;11614;52.494;6.976;2023-08-06T11:26:03;4.50;;;4.10;;
22894;SDS011;11614;52.494;6.976;2023-08-06T11:28:30;4.35;;;3.90;;
22894;SDS011;11614;52.494;6.976;2023-08-06T11:30:56;4.30;;;3.45;;
22894;SDS011;11614;52.494;6.976;2023-08-06T11:33:26;3.55;;;2.85;;
22894;SDS011;11614;52.494;6.976;2023-08-06T11:35:52;3.60;;;3.28;;
22894;SDS011;11614;52.494;6.976;2023-08-06T11:38:18;4.60;;;3.20;;
22894;SDS011;11614;52.494;6.976;2023-08-06T11:40:44;3.55;;;3.25;;
22894;SDS011;11614;52.494;6.976;2023-08-06T11:43:11;4.75;;;4.13;;
22894;SDS011;11614;52.494;6.976;2023-08-06T11:45:38;6.10;;;5.50;;
22894;SDS011;11614;52.494;6.976;2023-08-06T11:48:04;4.40;;;4.00;;
22894;SDS011;11614;52.494;6.976;2023-08-06T11:50:31;5.07;;;4.57;;
22894;SDS011;11614;52.494;6.976;2023-08-06T11:52:59;4.18;;;3.80;;
22894;SDS011;11614;52.494;6.976;2023-08-06T11:55:26;4.30;;;3.90;;
22894;SDS011;11614;52.494;6.976;2023-08-06T11:57:53;6.68;;;5.65;;
22894;SDS011;11614;52.494;6.976;2023-08-06T12:00:19;4.90;;;4.38;;
22894;SDS011;11614;52.494;6.976;2023-08-06T12:02:47;5.40;;;4.78;;
22894;SDS011;11614;52.494;6.976;2023-08-06T12:05:20;5.57;;;4.07;;
22894;SDS011;11614;52.494;6.976;2023-08-06T12:07:55;5.20;;;4.70;;
22894;SDS011;11614;52.494;6.976;2023-08-06T12:10:21;4.68;;;4.32;;
22894;SDS011;11614;52.494;6.976;2023-08-06T12:12:48;6.18;;;4.45;;
22894;SDS011;11614;52.494;6.976;2023-08-06T12:15:15;4.88;;;3.90;;
22894;SDS011;11614;52.494;6.976;2023-08-06T12:17:41;4.22;;;3.83;;
22894;SDS011;11614;52.494;6.976;2023-08-06T12:20:07;4.80;;;4.32;;
22894;SDS011;11614;52.494;6.976;2023-08-06T12:22:34;4.18;;;3.63;;
22894;SDS011;11614;52.494;6.976;2023-08-06T12:25:04;5.65;;;4.45;;
22894;SDS011;11614;52.494;6.976;2023-08-06T12:27:44;6.10;;;5.10;;
22894;SDS011;11614;52.494;6.976;2023-08-06T12:30:11;5.72;;;5.13;;
22894;SDS011;11614;52.494;6.976;2023-08-06T12:32:37;6.10;;;4.97;;
22894;SDS011;11614;52.494;6.976;2023-08-06T12:35:03;4.60;;;4.20;;
22894;SDS011;11614;52.494;6.976;2023-08-06T12:37:30;4.32;;;3.92;;
22894;SDS011;11614;52.494;6.976;2023-08-06T12:39:56;4.88;;;3.67;;
22894;SDS011;11614;52.494;6.976;2023-08-06T12:42:22;4.22;;;3.70;;
22894;SDS011;11614;52.494;6.976;2023-08-06T12:44:49;5.45;;;3.65;;
22894;SDS011;11614;52.494;6.976;2023-08-06T12:47:18;5.07;;;3.45;;
22894;SDS011;11614;52.494;6.976;2023-08-06T12:49:44;4.18;;;3.78;;
22894;SDS011;11614;52.494;6.976;2023-08-06T12:52:10;7.13;;;3.60;;
22894;SDS011;11614;52.494;6.976;2023-08-06T12:54:39;4.30;;;3.58;;
22894;SDS011;11614;52.494;6.976;2023-08-06T12:57:06;4.60;;;4.20;;
22894;SDS011;11614;52.494;6.976;2023-08-06T12:59:32;4.50;;;3.72;;
22894;SDS011;11614;52.494;6.976;2023-08-06T13:01:58;4.65;;;3.50;;
22894;SDS011;11614;52.494;6.976;2023-08-06T13:04:24;4.25;;;3.60;;
22894;SDS011;11614;52.494;6.976;2023-08-06T13:06:51;4.38;;;3.97;;
22894;SDS011;11614;52.494;6.976;2023-08-06T13:09:17;4.40;;;4.00;;
22894;SDS011;11614;52.494;6.976;2023-08-06T13:11:43;3.88;;;3.47;;
22894;SDS011;11614;52.494;6.976;2023-08-06T13:14:11;5.15;;;3.97;;
22894;SDS011;11614;52.494;6.976;2023-08-06T13:16:38;3.80;;;3.50;;
22894;SDS011;11614;52.494;6.976;2023-08-06T13:19:06;3.63;;;3.33;;
22894;SDS011;11614;52.494;6.976;2023-08-06T13:21:33;3.88;;;3.53;;
22894;SDS011;11614;52.494;6.976;2023-08-06T13:23:59;4.10;;;3.70;;
22894;SDS011;11614;52.494;6.976;2023-08-06T13:26:26;4.55;;;3.33;;
22894;SDS011;11614;52.494;6.976;2023-08-06T13:28:52;3.58;;;3.28;;
22894;SDS011;11614;52.494;6.976;2023-08-06T13:31:18;8.07;;;7.18;;
22894;SDS011;11614;52.494;6.976;2023-08-06T13:33:44;2.72;;;2.35;;
22894;SDS011;11614;52.494;6.976;2023-08-06T13:36:10;2.83;;;1.92;;
22894;SDS011;11614;52.494;6.976;2023-08-06T13:38:36;3.83;;;1.85;;
22894;SDS011;11614;52.494;6.976;2023-08-06T13:41:02;2.15;;;2.05;;
22894;SDS011;11614;52.494;6.976;2023-08-06T13:43:28;2.75;;;2.45;;
22894;SDS011;11614;52.494;6.976;2023-08-06T13:45:54;2.20;;;2.00;;
22894;SDS011;11614;52.494;6.976;2023-08-06T13:48:20;2.45;;;1.83;;
22894;SDS011;11614;52.494;6.976;2023-08-06T13:50:46;7.15;;;2.33;;
22894;SDS011;11614;52.494;6.976;2023-08-06T13:53:12;2.20;;;2.00;;
22894;SDS011;11614;52.494;6.976;2023-08-06T13:55:38;2.60;;;2.38;;
22894;SDS011;11614;52.494;6.976;2023-08-06T13:58:04;2.58;;;1.73;;
22894;SDS011;11614;52.494;6.976;2023-08-06T14:00:30;2.20;;;2.00;;
22894;SDS011;11614;52.494;6.976;2023-08-06T14:02:56;4.10;;;2.35;;
22894;SDS011;11614;52.494;6.976;2023-08-06T14:05:22;1.80;;;1.70;;
22894;SDS011;11614;52.494;6.976;2023-08-06T14:07:48;3.33;;;2.40;;
22894;SDS011;11614;52.494;6.976;2023-08-06T14:10:14;1.95;;;1.85;;
22894;SDS011;11614;52.494;6.976;2023-08-06T14:12:40;2.10;;;1.90;;
22894;SDS011;11614;52.494;6.976;2023-08-06T14:15:06;2.72;;;2.53;;
22894;SDS011;11614;52.494;6.976;2023-08-06T14:17:32;2.20;;;2.00;;
22894;SDS011;11614;52.494;6.976;2023-08-06T14:19:58;2.33;;;2.13;;
22894;SDS011;11614;52.494;6.976;2023-08-06T14:22:25;2.13;;;1.90;;
22894;SDS011;11614;52.494;6.976;2023-08-06T14:24:51;2.25;;;2.05;;
22894;SDS011;11614;52.494;6.976;2023-08-06T14:27:18;1.92;;;1.83;;
22894;SDS011;11614;52.494;6.976;2023-08-06T14:29:44;4.68;;;2.72;;
22894;SDS011;11614;52.494;6.976;2023-08-06T14:32:10;3.42;;;2.20;;
22894;SDS011;11614;52.494;6.976;2023-08-06T14:34:36;2.55;;;2.35;;
22894;SDS011;11614;52.494;6.976;2023-08-06T14:37:02;2.28;;;2.08;;
22894;SDS011;11614;52.494;6.976;2023-08-06T14:39:29;3.08;;;2.05;;
22894;SDS011;11614;52.494;6.976;2023-08-06T14:41:55;2.67;;;2.25;;
22894;SDS011;11614;52.494;6.976;2023-08-06T14:44:21;3.85;;;2.33;;
22894;SDS011;11614;52.494;6.976;2023-08-06T14:46:47;2.42;;;2.20;;
22894;SDS011;11614;52.494;6.976;2023-08-06T14:49:13;2.30;;;2.20;;
22894;SDS011;11614;52.494;6.976;2023-08-06T14:51:39;2.75;;;2.47;;